Time;durP1;ratioP1;P1;durP2;ratioP2;P2;SDS_P1;SDS_P2;PMS_P1;PMS_P2;Temp;Humidity;BMP_temperature;BMP_pressure;BME280_temperature;BME280_humidity;BME280_pressure;Samples;Min_cycle;Max_cycle;Signal;HPM_P1;HPM_P2
2022/08/09 00:01:47;;;;;;;7.20;4.60;;;;;;;16.47;71.46;102471.41;4976141;28;20027;-75
2022/08/09 00:04:20;;;;;;;6.45;4.70;;;;;;;16.49;71.41;102482.97;4975009;28;20046;-76
2022/08/09 00:06:46;;;;;;;7.22;5.03;;;;;;;16.48;71.90;102481.25;4984626;28;20388;-76
2022/08/09 00:09:13;;;;;;;5.43;4.65;;;;;;;16.43;71.96;102473.41;4980546;28;20038;-76
2022/08/09 00:11:39;;;;;;;7.45;5.22;;;;;;;16.38;72.63;102467.38;4979859;28;20038;-75
2022/08/09 00:14:04;;;;;;;6.75;4.80;;;;;;;16.32;72.76;102465.84;4990483;28;20031;-75
2022/08/09 00:16:30;;;;;;;5.97;4.93;;;;;;;16.35;72.68;102468.41;4979201;28;20372;-75
2022/08/09 00:18:55;;;;;;;6.40;5.05;;;;;;;16.29;72.96;102460.63;4971860;28;20496;-76
2022/08/09 00:21:20;;;;;;;7.07;5.70;;;;;;;16.27;73.04;102459.84;4975392;28;20034;-76
2022/08/09 00:23:46;;;;;;;6.63;5.50;;;;;;;16.20;73.40;102455.72;4977213;28;20251;-77
2022/08/09 00:26:11;;;;;;;7.80;5.47;;;;;;;16.26;73.24;102465.28;4993869;28;20040;-76
2022/08/09 00:28:38;;;;;;;6.53;5.35;;;;;;;16.18;73.50;102460.31;4979191;28;20031;-76
2022/08/09 00:31:04;;;;;;;5.80;5.20;;;;;;;16.21;73.43;102461.94;4983845;28;20126;-76
2022/08/09 00:33:29;;;;;;;6.35;5.38;;;;;;;16.11;73.97;102461.53;4993324;28;20387;-76
2022/08/09 00:35:55;;;;;;;7.55;5.18;;;;;;;16.14;73.74;102464.94;4982773;28;20030;-76
2022/08/09 00:38:21;;;;;;;5.95;5.30;;;;;;;16.10;74.24;102460.69;4982849;28;20041;-75
2022/08/09 00:40:47;;;;;;;5.45;4.93;;;;;;;16.00;74.58;102464.72;5001619;28;20022;-76
2022/08/09 00:43:12;;;;;;;7.60;5.10;;;;;;;16.01;74.88;102465.59;4991418;28;20149;-76
2022/08/09 00:45:37;;;;;;;6.10;5.50;;;;;;;15.94;74.65;102462.34;4983414;28;20652;-76
2022/08/09 00:48:04;;;;;;;6.82;5.25;;;;;;;15.91;74.79;102463.34;5007064;28;20065;-76
2022/08/09 00:50:30;;;;;;;5.60;5.10;;;;;;;15.98;74.80;102466.63;4997576;28;20043;-76
2022/08/09 00:52:56;;;;;;;6.55;5.20;;;;;;;15.92;75.10;102467.78;4989251;28;20023;-76
2022/08/09 00:55:22;;;;;;;6.75;5.55;;;;;;;15.99;74.88;102472.88;4998032;28;20117;-76
2022/08/09 00:57:47;;;;;;;7.68;5.60;;;;;;;15.96;75.09;102467.63;4984242;28;20030;-76
2022/08/09 01:00:13;;;;;;;8.43;5.72;;;;;;;15.97;75.17;102472.06;4984348;28;20259;-76
2022/08/09 01:02:45;;;;;;;7.25;5.70;;;;;;;15.92;75.37;102480.34;4981024;28;20050;-76
2022/08/09 01:05:32;;;;;;;7.28;5.55;;;;;;;15.98;74.48;102473.81;4983757;28;20104;-75
2022/08/09 01:08:07;;;;;;;6.45;5.38;;;;;;;15.92;75.13;102474.97;4972094;28;20050;-76
2022/08/09 01:10:54;;;;;;;5.97;5.38;;;;;;;15.96;74.36;102462.25;4987967;28;20105;-76
2022/08/09 01:13:25;;;;;;;5.68;5.13;;;;;;;15.93;75.32;102466.84;4976965;28;20125;-76
2022/08/09 01:15:54;;;;;;;8.10;6.20;;;;;;;15.85;75.60;102465.47;4987366;28;20062;-76
2022/08/09 01:18:28;;;;;;;8.20;5.68;;;;;;;15.86;75.17;102462.72;4989448;28;20424;-76
2022/08/09 01:21:27;;;;;;;12.90;5.88;;;;;;;15.80;74.95;102468.38;4976400;28;20022;-76
2022/08/09 01:24:09;;;;;;;7.93;5.80;;;;;;;15.75;76.08;102473.06;4979876;28;20027;-75
2022/08/09 01:26:51;;;;;;;14.13;5.88;;;;;;;15.76;75.65;102472.16;4981713;28;20035;-76
2022/08/09 01:29:20;;;;;;;6.50;5.10;;;;;;;15.75;76.22;102474.88;4976682;28;20034;-76
2022/08/09 01:31:47;;;;;;;7.65;5.97;;;;;;;15.66;76.60;102468.13;4984391;28;20378;-77
2022/08/09 01:34:17;;;;;;;6.75;5.57;;;;;;;15.64;76.78;102473.59;4987702;28;20034;-77
2022/08/09 01:36:44;;;;;;;12.25;5.97;;;;;;;15.63;76.88;102470.91;4973891;28;20037;-76
2022/08/09 01:39:10;;;;;;;6.80;5.82;;;;;;;15.63;76.94;102463.78;4990141;28;20034;-76
2022/08/09 01:41:40;;;;;;;6.57;5.95;;;;;;;15.64;76.96;102461.94;4995496;28;20026;-77
2022/08/09 01:44:06;;;;;;;6.53;5.65;;;;;;;15.62;77.03;102455.78;4979090;28;20057;-77
2022/08/09 01:46:35;;;;;;;7.88;5.80;;;;;;;15.54;77.51;102458.81;4997796;28;20519;-77
2022/08/09 01:49:06;;;;;;;11.63;5.97;;;;;;;15.58;76.97;102456.84;4986823;28;20041;-76
2022/08/09 01:51:34;;;;;;;8.00;5.55;;;;;;;15.55;77.38;102462.34;4981731;28;20076;-76
2022/08/09 01:54:02;;;;;;;6.22;5.63;;;;;;;15.51;77.29;102463.44;4982156;28;20022;-76
2022/08/09 01:56:30;;;;;;;7.20;5.55;;;;;;;15.50;77.25;102461.69;4980274;28;20018;-76
2022/08/09 01:58:57;;;;;;;7.85;5.57;;;;;;;15.52;77.20;102455.34;4975256;28;20030;-76
2022/08/09 02:01:25;;;;;;;6.60;5.90;;;;;;;15.55;77.03;102462.34;4976046;28;20054;-76
2022/08/09 02:03:54;;;;;;;8.27;6.07;;;;;;;15.52;77.33;102465.19;4984072;28;20583;-76
2022/08/09 02:07:07;;;;;;;7.75;5.70;;;;;;;15.49;77.25;102457.28;4982133;28;20468;-76
2022/08/09 02:09:09;;;;;;;6.45;5.80;;;;;;;15.44;77.70;102466.41;4983656;28;20054;-76
2022/08/09 02:11:35;;;;;;;8.00;6.13;;;;;;;15.43;77.77;102467.38;4985226;28;20073;-76
2022/08/09 02:14:04;;;;;;;6.50;5.80;;;;;;;15.40;77.88;102466.63;4988126;28;20042;-76
2022/08/09 02:16:34;;;;;;;6.72;5.93;;;;;;;15.29;78.31;102474.28;4972072;28;20023;-76
2022/08/09 02:19:00;;;;;;;7.85;5.88;;;;;;;15.22;78.59;102475.50;4981922;28;20045;-77
2022/08/09 02:21:28;;;;;;;7.63;5.80;;;;;;;15.07;79.11;102469.88;4988855;28;20022;-76
2022/08/09 02:23:56;;;;;;;8.95;6.15;;;;;;;15.04;79.25;102482.53;4976462;28;21411;-76
2022/08/09 02:26:23;;;;;;;7.93;6.57;;;;;;;14.95;80.01;102478.44;4992644;28;20030;-77
2022/08/09 02:28:52;;;;;;;7.47;6.57;;;;;;;14.93;80.07;102478.53;4975335;28;20055;-76
2022/08/09 02:31:21;;;;;;;8.50;6.32;;;;;;;14.84;80.34;102476.25;4981343;28;20792;-76
2022/08/09 02:33:50;;;;;;;8.65;6.13;;;;;;;14.86;80.13;102479.72;4978294;28;20113;-76
2022/08/09 02:36:19;;;;;;;11.15;6.68;;;;;;;14.82;79.96;102467.38;4996058;28;20144;-77
2022/08/09 02:38:49;;;;;;;11.10;6.70;;;;;;;14.84;80.12;102468.19;4981838;28;20530;-77
2022/08/09 02:41:22;;;;;;;7.35;6.65;;;;;;;14.81;80.21;102462.97;4984330;28;20030;-77
2022/08/09 02:43:51;;;;;;;8.70;6.80;;;;;;;14.84;80.03;102462.84;4973951;28;20038;-76
2022/08/09 02:46:17;;;;;;;7.82;6.57;;;;;;;14.79;80.39;102467.50;4981572;28;20029;-75
2022/08/09 02:48:44;;;;;;;8.07;6.50;;;;;;;14.83;80.25;102469.13;4975023;28;20026;-77
2022/08/09 02:51:11;;;;;;;9.65;6.72;;;;;;;14.81;80.27;102467.44;4986829;28;20026;-76
2022/08/09 02:53:43;;;;;;;9.20;6.80;;;;;;;14.84;80.19;102468.19;4979966;28;20380;-76
2022/08/09 02:56:10;;;;;;;8.27;6.65;;;;;;;14.80;80.07;102458.53;4983973;28;20033;-76
2022/08/09 02:58:37;;;;;;;6.95;6.35;;;;;;;14.80;79.87;102463.91;4984408;28;20165;-76
2022/08/09 03:01:06;;;;;;;8.25;6.32;;;;;;;14.79;80.10;102462.13;4979333;28;20029;-76
2022/08/09 03:03:34;;;;;;;6.95;6.28;;;;;;;14.81;79.96;102465.63;4987935;28;20046;-76
2022/08/09 03:06:01;;;;;;;9.57;6.80;;;;;;;14.74;80.20;102463.28;4994743;28;20026;-76
2022/08/09 03:08:28;;;;;;;6.85;6.15;;;;;;;14.76;80.20;102458.75;4988155;28;20022;-76
2022/08/09 03:10:55;;;;;;;7.90;6.75;;;;;;;14.63;80.51;102453.00;4988346;28;20058;-76
2022/08/09 03:13:22;;;;;;;9.35;6.65;;;;;;;14.61;80.98;102447.72;4985530;28;20030;-75
2022/08/09 03:15:50;;;;;;;7.57;6.50;;;;;;;14.61;81.14;102465.59;4986420;28;20022;-76
2022/08/09 03:18:17;;;;;;;8.05;6.63;;;;;;;14.64;80.88;102461.00;4984174;28;20394;-76
2022/08/09 03:20:42;;;;;;;9.38;7.13;;;;;;;14.57;81.14;102464.88;4979483;28;20084;-76
2022/08/09 03:23:10;;;;;;;7.95;6.90;;;;;;;14.61;80.96;102458.44;4983182;28;20411;-76
2022/08/09 03:25:37;;;;;;;10.75;7.35;;;;;;;14.54;81.09;102458.75;4997123;28;20461;-76
2022/08/09 03:28:04;;;;;;;8.63;6.13;;;;;;;14.56;81.28;102462.25;4980637;28;20073;-76
2022/08/09 03:30:30;;;;;;;7.03;6.32;;;;;;;14.53;81.03;102460.56;4982811;28;20022;-76
2022/08/09 03:32:58;;;;;;;10.73;6.38;;;;;;;14.51;81.32;102459.78;4983265;28;20283;-76
2022/08/09 03:35:24;;;;;;;7.15;6.45;;;;;;;14.47;81.94;102466.16;4978462;28;20023;-76
2022/08/09 03:37:49;;;;;;;8.80;6.88;;;;;;;14.45;81.30;102454.63;4982617;28;20029;-76
2022/08/09 03:40:15;;;;;;;8.48;6.43;;;;;;;14.40;81.63;102462.84;4983558;28;20031;-76
2022/08/09 03:42:40;;;;;;;9.43;6.80;;;;;;;14.41;82.07;102461.91;4972371;28;20171;-77
2022/08/09 03:45:06;;;;;;;9.88;6.93;;;;;;;14.40;82.13;102465.53;4987536;28;20356;-76
2022/08/09 03:47:31;;;;;;;7.60;6.80;;;;;;;14.44;82.28;102464.47;4979103;28;20034;-76
2022/08/09 03:49:58;;;;;;;11.27;7.47;;;;;;;14.38;82.22;102463.84;4980469;28;20038;-75
2022/08/09 03:52:25;;;;;;;8.15;7.00;;;;;;;14.33;82.42;102466.72;4982111;28;20495;-76
2022/08/09 03:54:51;;;;;;;9.38;6.88;;;;;;;14.27;82.81;102474.13;4978737;28;20034;-75
2022/08/09 03:57:17;;;;;;;9.80;6.70;;;;;;;14.29;82.79;102475.81;4996501;28;20065;-75
2022/08/09 03:59:43;;;;;;;7.70;7.00;;;;;;;14.20;83.06;102468.13;4979037;28;20054;-76
2022/08/09 04:02:08;;;;;;;10.43;7.38;;;;;;;14.18;83.18;102470.03;4982296;28;20027;-76
2022/08/09 04:04:34;;;;;;;7.88;6.93;;;;;;;14.16;83.35;102472.75;4974174;28;20035;-76
2022/08/09 04:07:01;;;;;;;10.98;7.40;;;;;;;14.15;83.70;102468.31;4984266;28;20360;-76
2022/08/09 04:09:26;;;;;;;9.68;7.25;;;;;;;14.19;83.53;102471.75;4972243;28;20174;-77
2022/08/09 04:11:58;;;;;;;9.40;7.00;;;;;;;14.20;83.41;102474.38;4971197;28;20381;-76
2022/08/09 04:14:24;;;;;;;9.85;7.22;;;;;;;14.16;83.60;102464.72;4980083;28;20030;-76
2022/08/09 04:16:49;;;;;;;9.75;7.80;;;;;;;14.09;84.25;102470.41;4984188;28;20033;-76
2022/08/09 04:19:14;;;;;;;9.05;7.63;;;;;;;14.08;84.27;102468.63;4983838;28;20026;-76
2022/08/09 04:21:40;;;;;;;11.65;7.55;;;;;;;14.08;84.32;102466.81;4981225;28;20034;-76
2022/08/09 04:24:05;;;;;;;8.75;7.20;;;;;;;14.06;84.47;102468.69;4984943;28;20034;-76
2022/08/09 04:26:31;;;;;;;11.63;7.40;;;;;;;14.01;84.54;102469.81;4982641;28;20369;-76
2022/08/09 04:28:56;;;;;;;9.27;7.72;;;;;;;13.98;84.85;102468.13;4976392;28;20033;-76
2022/08/09 04:31:21;;;;;;;8.68;7.43;;;;;;;13.97;84.97;102476.22;4982119;28;20035;-76
2022/08/09 04:33:47;;;;;;;9.32;7.68;;;;;;;14.00;84.89;102473.41;4993197;28;20026;-76
2022/08/09 04:36:12;;;;;;;9.63;7.57;;;;;;;13.97;85.56;102487.81;4991075;28;20026;-76
2022/08/09 04:38:37;;;;;;;10.27;7.72;;;;;;;13.96;85.36;102488.72;4999378;28;20025;-76
2022/08/09 04:41:03;;;;;;;8.77;7.32;;;;;;;14.01;85.38;102496.59;4981077;28;20089;-76
2022/08/09 04:43:28;;;;;;;11.63;7.90;;;;;;;13.98;85.64;102494.03;4975910;28;20060;-76
2022/08/09 04:45:53;;;;;;;8.98;7.57;;;;;;;14.05;85.20;102490.19;4982165;28;20117;-76
2022/08/09 04:48:19;;;;;;;8.70;7.80;;;;;;;14.05;85.26;102484.84;4992349;28;20524;-76
2022/08/09 04:50:44;;;;;;;8.68;7.60;;;;;;;14.05;85.66;102487.50;4983865;28;20026;-76
2022/08/09 04:53:10;;;;;;;9.98;8.15;;;;;;;14.06;85.50;102483.91;4992021;28;20122;-76
2022/08/09 04:55:38;;;;;;;15.13;8.55;;;;;;;14.06;85.48;102490.13;4973652;28;20469;-76
2022/08/09 04:58:05;;;;;;;9.43;8.02;;;;;;;14.07;85.49;102491.00;4972954;28;20030;-75
2022/08/09 05:00:33;;;;;;;12.82;8.20;;;;;;;14.05;85.48;102487.50;4978613;28;20288;-76
2022/08/09 05:03:00;;;;;;;9.00;7.95;;;;;;;14.04;85.72;102504.50;4976620;28;20061;-75
2022/08/09 05:05:25;;;;;;;10.73;8.52;;;;;;;14.07;85.90;102499.03;4973289;28;20030;-76
2022/08/09 05:07:50;;;;;;;10.80;8.95;;;;;;;14.02;86.45;102493.84;4973450;28;20030;-75
2022/08/09 05:10:16;;;;;;;10.35;8.65;;;;;;;14.09;85.94;102502.53;4976461;28;20472;-75
2022/08/09 05:12:41;;;;;;;10.98;9.13;;;;;;;14.08;86.23;102504.31;4975984;28;20030;-75
2022/08/09 05:15:07;;;;;;;12.23;9.02;;;;;;;14.10;86.25;102506.94;4984778;28;20038;-75
2022/08/09 05:17:32;;;;;;;11.00;8.73;;;;;;;14.14;86.23;102512.13;5001209;28;20033;-75
2022/08/09 05:19:57;;;;;;;14.52;9.25;;;;;;;14.16;86.39;102504.00;4986102;28;20031;-76
2022/08/09 05:22:23;;;;;;;13.88;10.23;;;;;;;14.22;86.12;102503.78;4983135;28;20042;-76
2022/08/09 05:24:48;;;;;;;10.75;9.07;;;;;;;14.27;86.21;102509.81;4986605;28;20046;-76
2022/08/09 05:27:13;;;;;;;13.20;9.98;;;;;;;14.28;86.24;102502.66;4981947;28;20038;-76
2022/08/09 05:29:38;;;;;;;12.95;9.80;;;;;;;14.36;86.35;102506.78;4983977;28;20293;-75
2022/08/09 05:32:04;;;;;;;14.23;9.55;;;;;;;14.44;86.56;102507.34;4984774;28;20078;-76
2022/08/09 05:34:30;;;;;;;14.20;9.65;;;;;;;14.51;86.39;102508.00;4983240;28;20038;-75
2022/08/09 05:36:56;;;;;;;11.77;10.30;;;;;;;14.60;86.03;102501.38;4982351;28;20034;-76
2022/08/09 05:39:22;;;;;;;11.38;9.48;;;;;;;14.75;85.70;102508.78;4978672;28;20045;-75
2022/08/09 05:41:48;;;;;;;13.05;10.10;;;;;;;14.90;85.55;102508.13;4975914;28;20030;-75
2022/08/09 05:44:13;;;;;;;16.05;10.50;;;;;;;15.06;84.67;102512.84;4974475;28;20493;-75
2022/08/09 05:46:38;;;;;;;13.68;10.60;;;;;;;15.14;84.26;102503.53;4977796;28;20037;-76
2022/08/09 05:49:04;;;;;;;12.82;10.02;;;;;;;15.34;83.86;102513.41;4976687;28;20062;-75
2022/08/09 05:51:29;;;;;;;15.13;9.60;;;;;;;15.52;82.63;102508.13;4975585;28;20126;-76
2022/08/09 05:53:54;;;;;;;11.88;9.95;;;;;;;15.68;82.34;102511.91;4982909;28;20023;-75
2022/08/09 05:56:20;;;;;;;12.13;9.82;;;;;;;15.86;81.58;102508.34;4976566;28;20133;-76
2022/08/09 05:58:45;;;;;;;13.40;10.80;;;;;;;15.96;80.80;102524.91;4996025;28;20084;-74
2022/08/09 06:01:10;;;;;;;11.15;9.68;;;;;;;16.12;80.42;102528.59;4978356;28;20468;-75
2022/08/09 06:03:36;;;;;;;12.48;9.93;;;;;;;16.27;80.06;102532.41;4977266;28;20065;-75
2022/08/09 06:06:01;;;;;;;12.27;10.00;;;;;;;16.42;79.24;102525.38;4970385;28;20097;-76
2022/08/09 06:08:27;;;;;;;12.82;9.80;;;;;;;16.56;78.58;102528.28;4969809;28;20102;-76
2022/08/09 06:10:54;;;;;;;11.95;9.77;;;;;;;16.68;78.39;102521.44;4985077;28;20037;-76
2022/08/09 06:13:20;;;;;;;12.77;10.20;;;;;;;16.72;77.61;102528.41;4984264;28;20108;-74
2022/08/09 06:15:45;;;;;;;14.48;9.75;;;;;;;16.86;77.08;102528.59;4975159;28;20050;-74
2022/08/09 06:18:10;;;;;;;12.82;10.10;;;;;;;17.02;77.01;102519.75;4970099;28;20023;-75
2022/08/09 06:20:36;;;;;;;11.45;9.52;;;;;;;17.11;77.09;102521.97;4984286;28;20109;-74
2022/08/09 06:23:02;;;;;;;14.70;10.02;;;;;;;17.25;76.19;102532.00;4975312;28;20041;-75
2022/08/09 06:25:27;;;;;;;11.65;9.50;;;;;;;17.51;75.96;102541.41;4968972;28;20428;-75
2022/08/09 06:27:52;;;;;;;10.20;9.02;;;;;;;17.67;75.11;102536.94;4975990;28;21062;-75
2022/08/09 06:30:18;;;;;;;10.63;9.52;;;;;;;17.83;74.78;102528.94;4993466;28;20034;-75
2022/08/09 06:32:44;;;;;;;13.55;9.30;;;;;;;17.98;73.85;102538.00;4992632;28;20621;-76
2022/08/09 06:35:10;;;;;;;12.35;9.40;;;;;;;18.10;73.42;102531.91;4996527;28;20038;-75
2022/08/09 06:37:35;;;;;;;11.57;9.07;;;;;;;18.32;72.89;102537.00;4999555;28;20032;-76
2022/08/09 06:40:01;;;;;;;11.57;8.82;;;;;;;18.57;72.21;102533.75;4996442;28;20035;-76
2022/08/09 06:42:26;;;;;;;11.23;9.30;;;;;;;18.71;71.35;102533.84;4980207;28;20029;-76
2022/08/09 06:44:52;;;;;;;12.43;9.35;;;;;;;18.82;70.70;102531.41;4990492;28;20030;-76
2022/08/09 06:47:17;;;;;;;12.77;9.13;;;;;;;18.88;69.75;102535.56;4979426;28;20058;-76
2022/08/09 06:49:42;;;;;;;12.05;8.98;;;;;;;19.01;69.57;102536.56;4976114;28;21802;-76
2022/08/09 06:52:08;;;;;;;12.05;8.18;;;;;;;19.04;68.86;102536.38;4983268;28;20050;-76
2022/08/09 06:54:33;;;;;;;11.30;8.45;;;;;;;19.10;68.56;102536.03;4978014;28;20031;-77
2022/08/09 06:56:59;;;;;;;9.50;7.85;;;;;;;19.31;68.72;102536.56;4983555;28;20037;-76
2022/08/09 06:59:24;;;;;;;12.77;9.48;;;;;;;19.50;67.82;102533.59;4987210;28;20100;-76
2022/08/09 07:01:49;;;;;;;19.63;14.35;;;;;;;19.71;67.69;102547.63;4975194;28;20407;-77
2022/08/09 07:04:15;;;;;;;10.38;8.40;;;;;;;19.84;66.22;102550.41;4984256;28;20281;-74
2022/08/09 07:06:40;;;;;;;9.98;8.65;;;;;;;19.82;65.85;102546.97;4981916;28;20065;-76
2022/08/09 07:09:05;;;;;;;11.18;8.45;;;;;;;19.82;65.71;102549.66;4979221;28;20089;-75
2022/08/09 07:11:32;;;;;;;13.88;8.07;;;;;;;19.97;65.54;102551.38;4977511;28;20227;-75
2022/08/09 07:13:58;;;;;;;13.57;8.45;;;;;;;20.12;64.92;102554.94;4972469;28;20436;-76
2022/08/09 07:16:23;;;;;;;14.18;8.00;;;;;;;20.25;64.03;102547.78;4981899;28;20451;-76
2022/08/09 07:18:48;;;;;;;9.57;7.47;;;;;;;20.42;62.96;102551.22;4977329;28;20026;-76
2022/08/09 07:21:14;;;;;;;9.77;7.25;;;;;;;20.66;62.36;102552.34;4969165;28;20174;-76
2022/08/09 07:23:40;;;;;;;9.77;7.32;;;;;;;20.82;61.91;102549.50;4978622;28;20023;-76
2022/08/09 07:26:06;;;;;;;10.10;7.68;;;;;;;21.01;61.17;102547.25;4975491;28;20042;-76
2022/08/09 07:28:31;;;;;;;9.75;7.20;;;;;;;21.26;59.98;102549.16;4992380;28;20067;-76
2022/08/09 07:30:56;;;;;;;10.65;7.85;;;;;;;21.60;59.83;102560.38;4981489;28;20039;-76
2022/08/09 07:33:21;;;;;;;8.90;8.00;;;;;;;21.98;59.10;102557.63;4988109;28;20023;-76
2022/08/09 07:35:47;;;;;;;11.70;8.13;;;;;;;22.26;57.71;102556.53;4984378;28;20046;-76
2022/08/09 07:38:12;;;;;;;10.90;8.05;;;;;;;22.51;56.49;102563.72;4986420;28;20038;-75
2022/08/09 07:40:37;;;;;;;9.02;8.05;;;;;;;22.66;55.94;102556.28;4984273;28;20033;-75
2022/08/09 07:43:03;;;;;;;10.85;8.00;;;;;;;22.89;55.81;102565.41;4981597;28;20022;-76
2022/08/09 07:45:29;;;;;;;9.82;7.88;;;;;;;23.25;54.73;102567.19;4976828;28;20133;-75
2022/08/09 07:47:57;;;;;;;11.90;8.40;;;;;;;23.52;53.73;102561.44;4977477;28;20041;-77
2022/08/09 07:50:24;;;;;;;9.30;7.85;;;;;;;23.99;52.32;102559.50;4974218;28;20041;-76
2022/08/09 07:52:49;;;;;;;9.60;7.00;;;;;;;24.11;50.28;102563.09;4981682;28;20058;-75
2022/08/09 07:55:15;;;;;;;8.10;6.70;;;;;;;24.41;50.52;102564.34;4972292;28;20050;-76
2022/08/09 07:57:41;;;;;;;9.88;7.20;;;;;;;24.55;50.47;102566.78;4970893;28;20073;-75
2022/08/09 08:00:08;;;;;;;9.15;7.22;;;;;;;24.87;50.28;102560.47;4976381;28;20026;-76
2022/08/09 08:02:33;;;;;;;9.55;6.78;;;;;;;25.27;48.81;102563.44;4974099;28;20400;-76
2022/08/09 08:04:58;;;;;;;8.32;6.07;;;;;;;25.53;48.49;102564.75;4976126;28;20047;-76
2022/08/09 08:07:24;;;;;;;8.27;6.38;;;;;;;25.91;46.00;102565.97;4990712;28;20290;-75
2022/08/09 08:09:52;;;;;;;10.23;6.28;;;;;;;26.20;45.34;102568.81;4980158;28;20046;-76
2022/08/09 08:12:18;;;;;;;6.75;5.20;;;;;;;26.48;44.42;102563.63;4977601;28;20102;-76
2022/08/09 08:14:43;;;;;;;9.15;6.47;;;;;;;26.13;44.33;102575.00;4977970;28;20121;-76
2022/08/09 08:17:09;;;;;;;9.52;5.60;;;;;;;26.03;44.96;102580.41;4984180;28;20165;-76
2022/08/09 08:19:34;;;;;;;7.75;5.65;;;;;;;26.48;44.14;102566.34;4971712;28;20027;-77
2022/08/09 08:21:59;;;;;;;7.22;5.97;;;;;;;26.77;42.93;102560.94;4984961;28;20038;-77
2022/08/09 08:24:25;;;;;;;7.55;5.90;;;;;;;27.16;43.00;102571.88;4971702;28;20037;-76
2022/08/09 08:26:50;;;;;;;7.93;6.47;;;;;;;27.41;42.17;102565.81;4971117;28;20077;-77
2022/08/09 08:29:18;;;;;;;8.82;5.60;;;;;;;28.15;40.31;102564.16;4977721;28;20053;-77
2022/08/09 08:31:44;;;;;;;5.43;4.45;;;;;;;28.17;38.35;102573.94;4979279;28;20061;-77
2022/08/09 08:34:09;;;;;;;5.07;3.75;;;;;;;27.68;39.27;102573.25;4975168;28;20062;-76
2022/08/09 08:36:35;;;;;;;6.60;4.50;;;;;;;27.81;39.15;102559.28;4978517;28;20082;-77
2022/08/09 08:39:00;;;;;;;4.50;3.63;;;;;;;27.84;38.69;102560.81;4976104;28;20026;-76
2022/08/09 08:41:27;;;;;;;4.70;3.47;;;;;;;28.12;37.84;102570.78;4981529;28;20069;-75
2022/08/09 08:43:52;;;;;;;3.83;3.15;;;;;;;28.88;36.75;102567.72;4972902;28;20042;-77
2022/08/09 08:46:22;;;;;;;3.97;3.58;;;;;;;28.92;35.89;102560.91;4977489;28;20026;-76
2022/08/09 08:48:49;;;;;;;4.75;3.58;;;;;;;29.08;35.55;102579.44;4986896;28;20556;-77
2022/08/09 08:51:14;;;;;;;7.20;3.67;;;;;;;29.18;35.29;102565.63;4982278;28;20026;-77
2022/08/09 08:53:39;;;;;;;4.47;3.22;;;;;;;29.90;34.81;102564.44;4975852;28;20033;-77
2022/08/09 08:56:05;;;;;;;5.43;3.00;;;;;;;30.33;33.74;102581.81;4973064;28;20026;-77
2022/08/09 08:58:32;;;;;;;4.03;2.20;;;;;;;30.30;33.63;102579.38;4969778;28;20031;-77
2022/08/09 09:00:58;;;;;;;3.88;2.70;;;;;;;29.56;34.10;102580.00;4975896;28;20054;-77
2022/08/09 09:03:32;;;;;;;3.40;2.05;;;;;;;29.96;34.13;102573.88;4986577;28;20070;-77
2022/08/09 09:05:58;;;;;;;3.05;2.63;;;;;;;30.23;32.68;102581.09;4974912;28;20465;-77
2022/08/09 09:08:24;;;;;;;5.68;2.25;;;;;;;30.61;32.14;102582.41;4974449;28;20090;-76
2022/08/09 09:10:52;;;;;;;6.35;2.70;;;;;;;31.00;32.38;102573.56;4978721;28;20031;-76
2022/08/09 09:13:18;;;;;;;4.72;2.33;;;;;;;31.10;30.69;102589.88;4979814;28;20030;-76
2022/08/09 09:15:44;;;;;;;3.15;1.90;;;;;;;31.29;30.42;102586.84;4979216;28;20085;-77
2022/08/09 09:18:14;;;;;;;7.00;1.98;;;;;;;31.63;30.64;102594.00;4971387;28;20023;-77
2022/08/09 09:20:42;;;;;;;2.28;1.88;;;;;;;31.86;30.19;102602.44;4974555;28;20034;-77
2022/08/09 09:23:07;;;;;;;4.32;2.17;;;;;;;32.09;29.29;102599.78;4977920;28;20070;-77
2022/08/09 09:25:41;;;;;;;3.05;1.95;;;;;;;32.13;29.59;102604.75;4986319;28;20468;-76
2022/08/09 09:28:08;;;;;;;9.27;1.95;;;;;;;32.63;28.23;102588.84;4979248;28;20085;-77
2022/08/09 09:30:50;;;;;;;3.22;2.00;;;;;;;32.47;28.22;102603.59;4976816;28;20026;-76
2022/08/09 09:33:15;;;;;;;5.40;2.20;;;;;;;32.13;28.55;102590.97;4975656;28;20054;-77
2022/08/09 09:35:55;;;;;;;4.50;1.70;;;;;;;32.71;28.78;102591.56;4978772;28;20031;-78
2022/08/09 09:38:22;;;;;;;2.13;1.50;;;;;;;32.51;27.59;102588.41;4978911;28;20038;-77
2022/08/09 09:40:48;;;;;;;2.50;1.50;;;;;;;32.90;27.68;102584.69;4985556;28;20031;-75
2022/08/09 09:43:18;;;;;;;2.80;1.67;;;;;;;33.30;26.91;102591.81;4974680;28;20505;-76
2022/08/09 09:45:49;;;;;;;2.17;1.60;;;;;;;32.76;27.74;102577.22;4981364;28;20080;-77
2022/08/09 09:48:15;;;;;;;1.85;1.38;;;;;;;33.49;26.72;102584.94;4977061;28;20027;-76
2022/08/09 09:50:42;;;;;;;1.73;1.27;;;;;;;34.10;25.40;102582.88;4973260;28;20034;-76
2022/08/09 09:53:16;;;;;;;1.33;1.15;;;;;;;34.67;25.46;102584.03;4972003;28;20077;-76
2022/08/09 09:55:52;;;;;;;2.95;1.27;;;;;;;35.79;24.21;102588.91;4976110;28;20124;-77
2022/08/09 09:58:18;;;;;;;2.65;1.30;;;;;;;35.77;23.03;102577.16;4976178;28;20054;-78
2022/08/09 10:00:51;;;;;;;2.15;1.23;;;;;;;35.65;23.35;102587.94;4971414;28;20100;-77
2022/08/09 10:03:16;;;;;;;2.55;1.33;;;;;;;35.81;23.84;102592.31;4989782;28;20123;-76
2022/08/09 10:05:59;;;;;;;3.58;1.45;;;;;;;35.50;23.99;102588.06;5009461;28;20014;-76
2022/08/09 10:08:24;;;;;;;3.33;1.23;;;;;;;36.04;23.16;102587.38;4988588;28;20039;-77
2022/08/09 10:10:50;;;;;;;3.20;1.30;;;;;;;36.24;22.37;102594.91;4984113;28;20126;-76
2022/08/09 10:13:17;;;;;;;2.45;1.15;;;;;;;36.69;22.81;102576.75;5001417;28;20030;-75
2022/08/09 10:15:50;;;;;;;1.90;1.10;;;;;;;37.20;22.78;102591.97;4976139;28;20085;-77
2022/08/09 10:18:16;;;;;;;2.25;1.20;;;;;;;36.69;21.32;102598.09;4986828;28;20031;-78
2022/08/09 10:20:42;;;;;;;1.60;1.23;;;;;;;36.36;22.20;102587.69;4977234;28;20042;-77
2022/08/09 10:23:20;;;;;;;2.17;1.30;;;;;;;36.61;23.68;102590.81;4978785;28;20734;-76
2022/08/09 10:25:46;;;;;;;1.80;1.00;;;;;;;37.00;21.46;102587.28;4973551;28;20035;-76
2022/08/09 10:28:12;;;;;;;3.00;1.40;;;;;;;36.92;21.50;102583.84;4986081;28;20027;-77
2022/08/09 10:30:38;;;;;;;2.80;1.30;;;;;;;36.11;22.25;102588.25;4975567;28;20026;-76
2022/08/09 10:33:03;;;;;;;2.85;1.63;;;;;;;36.85;21.89;102579.13;4975861;28;20185;-75
2022/08/09 10:35:30;;;;;;;2.80;1.00;;;;;;;37.94;20.62;102588.09;4980368;28;20030;-76
2022/08/09 10:37:58;;;;;;;2.17;1.00;;;;;;;38.14;19.91;102574.97;4980103;28;20220;-77
2022/08/09 10:40:24;;;;;;;2.17;0.90;;;;;;;38.87;20.13;102574.59;4981501;28;20026;-77
2022/08/09 10:42:49;;;;;;;2.70;1.08;;;;;;;39.07;19.16;102572.53;4984021;28;20023;-77
2022/08/09 10:45:16;;;;;;;1.25;0.80;;;;;;;38.68;19.21;102583.94;4974190;28;20031;-77
2022/08/09 10:48:15;;;;;;;1.58;0.90;;;;;;;38.69;20.25;102572.56;4977174;28;20030;-76
2022/08/09 10:51:08;;;;;;;3.72;1.30;;;;;;;38.62;19.85;102575.38;4976055;28;20136;-76
2022/08/09 10:53:56;;;;;;;3.60;1.20;;;;;;;38.84;20.27;102569.50;4981596;28;20369;-77
2022/08/09 10:56:28;;;;;;;3.28;1.92;;;;;;;38.55;19.99;102579.31;4968842;28;20477;-76
2022/08/09 10:58:56;;;;;;;7.10;4.20;;;;;;;38.35;20.02;102568.28;4986539;28;20041;-76
2022/08/09 11:01:31;;;;;;;2.63;0.93;;;;;;;38.27;20.40;102565.72;4995260;28;20377;-76
2022/08/09 11:04:29;;;;;;;3.60;1.20;;;;;;;39.11;19.62;102559.84;5004604;28;20080;-76
2022/08/09 11:06:57;;;;;;;1.60;0.85;;;;;;;38.83;19.59;102563.06;4991594;28;20030;-77
2022/08/09 11:09:37;;;;;;;3.60;1.45;;;;;;;39.31;19.71;102567.22;4985125;28;20029;-75
2022/08/09 11:12:10;;;;;;;1.73;1.10;;;;;;;38.76;19.58;102558.63;4983960;28;20093;-73
2022/08/09 11:14:40;;;;;;;1.75;1.15;;;;;;;38.62;19.12;102566.19;4990232;28;20198;-76
2022/08/09 11:17:11;;;;;;;1.95;1.20;;;;;;;38.74;19.81;102567.16;4989359;28;20387;-75
2022/08/09 11:19:49;;;;;;;1.15;0.93;;;;;;;39.33;18.86;102559.47;4973407;28;20038;-76
2022/08/09 11:22:17;;;;;;;1.63;1.00;;;;;;;38.50;18.82;102565.19;4982619;28;20105;-76
2022/08/09 11:25:02;;;;;;;1.98;1.10;;;;;;;39.15;19.92;102563.03;4979086;28;20266;-75